createdAt,value
2023-03-29T00:00:16.834Z,69.09
2023-03-29T00:03:05.305Z,69.01
2023-03-29T00:05:36.253Z,69.04
2023-03-29T00:08:04.606Z,68.94
2023-03-29T00:10:34.242Z,68.91
2023-03-29T00:13:03.176Z,69.03
2023-03-29T00:15:31.392Z,69.19
2023-03-29T00:17:59.393Z,69.36
2023-03-29T00:20:28.914Z,69.06
2023-03-29T00:22:56.983Z,69.10
2023-03-29T00:25:25.012Z,69.13
2023-03-29T00:27:53.027Z,69.23
2023-03-29T00:30:21.081Z,69.29
2023-03-29T00:32:49.015Z,69.20
2023-03-29T00:35:17.251Z,69.49
2023-03-29T00:37:47.249Z,69.53
2023-03-29T00:40:15.700Z,69.93
2023-03-29T00:42:46.737Z,69.87
2023-03-29T00:45:27.676Z,69.83
2023-03-29T00:48:04.728Z,69.87
2023-03-29T00:50:57.424Z,70.18
2023-03-29T00:53:33.503Z,69.87
2023-03-29T00:56:05.395Z,70.17
2023-03-29T00:59:02.379Z,70.54
2023-03-29T01:01:42.248Z,70.61
2023-03-29T01:04:26.043Z,71.18
2023-03-29T01:06:59.356Z,71.14
2023-03-29T01:09:30.475Z,71.07
2023-03-29T01:12:03.017Z,70.73
2023-03-29T01:14:41.891Z,70.71
2023-03-29T01:17:12.951Z,71.11
2023-03-29T01:19:47.988Z,71.10
2023-03-29T01:22:18.833Z,70.82
2023-03-29T01:25:14.618Z,71.06
2023-03-29T01:27:51.663Z,70.86
2023-03-29T01:30:29.871Z,71.41
2023-03-29T01:33:04.316Z,71.52
2023-03-29T01:36:04.921Z,71.57
2023-03-29T01:38:51.734Z,71.89
2023-03-29T01:41:20.270Z,72.10
2023-03-29T01:43:51.448Z,72.53
2023-03-29T01:46:26.540Z,72.29
2023-03-29T01:49:03.638Z,72.57
2023-03-29T01:52:01.301Z,72.52
2023-03-29T01:54:36.169Z,72.68
2023-03-29T01:57:07.053Z,73.16
2023-03-29T01:59:38.683Z,74.14
2023-03-29T02:02:11.983Z,74.16
2023-03-29T02:04:48.061Z,74.07
2023-03-29T02:07:19.388Z,73.85
2023-03-29T02:09:50.100Z,74.16
2023-03-29T02:12:18.957Z,74.23
2023-03-29T02:14:46.956Z,74.51
2023-03-29T02:17:24.482Z,74.48
2023-03-29T02:19:59.416Z,74.80
2023-03-29T02:22:37.253Z,74.84
2023-03-29T02:25:08.611Z,75.08
2023-03-29T02:27:38.125Z,75.32
2023-03-29T02:30:09.076Z,75.08
2023-03-29T02:32:51.963Z,75.53
2023-03-29T02:35:35.173Z,75.36
2023-03-29T02:38:07.102Z,76.06
2023-03-29T02:40:37.791Z,75.79
2023-03-29T02:43:08.415Z,76.17
2023-03-29T02:45:39.768Z,76.55
2023-03-29T02:48:12.570Z,76.66
2023-03-29T02:50:43.668Z,76.70
2023-03-29T02:53:26.810Z,77.20
2023-03-29T02:55:55.605Z,77.17
2023-03-29T02:58:26.682Z,77.00
2023-03-29T03:00:57.162Z,76.89
2023-03-29T03:03:25.610Z,77.31
2023-03-29T03:05:54.001Z,79.02
2023-03-29T03:08:22.006Z,79.16
2023-03-29T03:10:50.113Z,78.86
2023-03-29T03:13:20.826Z,78.33
2023-03-29T03:15:49.457Z,78.16
2023-03-29T03:18:17.659Z,78.27
2023-03-29T03:20:58.281Z,78.18
2023-03-29T03:23:26.214Z,78.46
2023-03-29T03:25:55.334Z,79.20
2023-03-29T03:28:24.431Z,80.24
2023-03-29T03:30:53.066Z,80.41
2023-03-29T03:33:56.785Z,80.14
2023-03-29T03:36:51.176Z,79.85
2023-03-29T03:39:19.185Z,80.94
2023-03-29T03:41:47.136Z,80.26
2023-03-29T03:44:15.071Z,80.27
2023-03-29T03:46:44.116Z,79.87
2023-03-29T03:49:12.252Z,79.83
2023-03-29T03:51:44.390Z,80.01
2023-03-29T03:54:12.725Z,79.83
2023-03-29T03:57:01.121Z,79.60
2023-03-29T03:59:39.768Z,80.15
2023-03-29T04:02:11.906Z,80.87
2023-03-29T04:04:40.753Z,81.26
2023-03-29T04:07:13.203Z,80.64
2023-03-29T04:10:09.279Z,80.94
2023-03-29T04:12:47.204Z,80.94
2023-03-29T04:15:17.950Z,80.94
2023-03-29T04:17:51.543Z,80.91
2023-03-29T04:20:19.790Z,80.67
2023-03-29T04:22:47.811Z,80.86
2023-03-29T04:26:15.782Z,80.84
2023-03-29T04:29:04.913Z,80.92
2023-03-29T04:31:40.219Z,81.85
2023-03-29T04:34:29.358Z,82.37
2023-03-29T04:36:58.926Z,82.18
2023-03-29T04:39:33.864Z,82.21
2023-03-29T04:42:03.164Z,81.88
2023-03-29T04:44:33.769Z,81.64
2023-03-29T04:47:02.268Z,81.69
2023-03-29T04:49:30.556Z,81.72
2023-03-29T04:52:01.010Z,82.09
2023-03-29T04:54:30.375Z,82.30
2023-03-29T04:57:17.231Z,82.63
2023-03-29T04:59:56.986Z,82.69
2023-03-29T05:02:50.941Z,82.65
2023-03-29T05:05:19.476Z,83.21
2023-03-29T05:07:48.055Z,83.12
2023-03-29T05:10:16.440Z,83.64
2023-03-29T05:12:44.539Z,83.89
2023-03-29T05:15:12.522Z,84.42
2023-03-29T05:17:40.858Z,83.94
2023-03-29T05:20:12.920Z,83.75
2023-03-29T05:22:41.211Z,84.06
2023-03-29T05:25:11.888Z,84.12
2023-03-29T05:27:42.533Z,84.14
2023-03-29T05:30:11.935Z,84.12
2023-03-29T05:32:48.197Z,84.04
2023-03-29T05:35:17.661Z,84.09
2023-03-29T05:37:47.418Z,84.01
2023-03-29T05:40:15.513Z,84.00
2023-03-29T05:43:02.929Z,83.98
2023-03-29T05:45:32.592Z,83.98
2023-03-29T05:48:00.881Z,83.98
2023-03-29T05:50:30.249Z,83.87
2023-03-29T05:52:58.685Z,83.83
2023-03-29T05:55:27.120Z,83.77
2023-03-29T05:57:55.908Z,83.71
2023-03-29T06:00:26.853Z,83.79
2023-03-29T06:03:17.631Z,83.73
2023-03-29T06:05:56.328Z,83.59
2023-03-29T06:08:26.302Z,83.71
2023-03-29T06:11:09.147Z,83.84
2023-03-29T06:13:55.953Z,83.72
2023-03-29T06:16:24.187Z,83.51
2023-03-29T06:18:53.326Z,83.52
2023-03-29T06:21:22.350Z,83.24
2023-03-29T06:23:50.502Z,83.25
2023-03-29T06:26:19.192Z,82.75
2023-03-29T06:28:51.417Z,82.25
2023-03-29T06:31:21.173Z,81.58
2023-03-29T06:33:50.928Z,81.92
2023-03-29T06:36:45.970Z,81.09
2023-03-29T06:39:14.563Z,80.83
2023-03-29T06:41:57.982Z,81.07
2023-03-29T06:44:44.149Z,79.59
2023-03-29T06:47:19.774Z,79.36
2023-03-29T06:49:47.735Z,78.40
2023-03-29T06:52:30.283Z,77.89
2023-03-29T06:55:02.041Z,77.68
2023-03-29T06:57:30.880Z,77.81
2023-03-29T06:59:59.299Z,78.57
2023-03-29T07:02:44.513Z,78.60
2023-03-29T07:05:14.662Z,78.34
2023-03-29T07:07:55.507Z,78.71
2023-03-29T07:10:54.061Z,77.72
2023-03-29T07:13:46.341Z,77.91
2023-03-29T07:16:18.148Z,77.84
2023-03-29T07:18:48.995Z,77.49
2023-03-29T07:21:28.912Z,76.56
2023-03-29T07:24:01.827Z,76.36
2023-03-29T07:26:30.620Z,75.97
2023-03-29T07:29:00.275Z,75.43
2023-03-29T07:31:33.140Z,75.82
2023-03-29T07:34:20.923Z,75.05
2023-03-29T07:36:48.998Z,75.79
2023-03-29T07:39:17.752Z,75.13
2023-03-29T07:41:58.128Z,73.76
2023-03-29T07:44:27.246Z,72.10
2023-03-29T07:46:56.315Z,71.36
2023-03-29T07:50:15.100Z,70.70
2023-03-29T07:52:44.478Z,69.42
2023-03-29T07:55:14.040Z,68.87
2023-03-29T07:58:05.447Z,68.89
2023-03-29T08:00:34.232Z,68.11
2023-03-29T08:03:17.221Z,67.55
2023-03-29T08:05:45.462Z,65.97
2023-03-29T08:08:16.404Z,65.03
2023-03-29T08:10:52.022Z,65.62
2023-03-29T08:13:42.938Z,64.94
2023-03-29T08:16:23.079Z,64.33
2023-03-29T08:18:56.777Z,61.33
2023-03-29T08:21:26.587Z,61.36
2023-03-29T08:23:54.698Z,60.34
2023-03-29T08:26:27.341Z,58.63
2023-03-29T08:28:55.993Z,59.54
2023-03-29T08:31:24.640Z,59.35
2023-03-29T08:33:53.389Z,59.62
2023-03-29T08:36:40.370Z,58.77
2023-03-29T08:39:19.543Z,58.02
2023-03-29T08:42:04.964Z,58.26
2023-03-29T08:44:58.007Z,56.54
2023-03-29T08:47:45.543Z,56.85
2023-03-29T08:50:15.151Z,56.35
2023-03-29T08:52:51.663Z,56.71
2023-03-29T08:55:38.124Z,55.97
2023-03-29T08:58:29.133Z,56.62
2023-03-29T09:01:00.400Z,55.65
2023-03-29T09:03:44.063Z,55.27
2023-03-29T09:06:19.265Z,56.76
2023-03-29T09:08:49.873Z,55.11
2023-03-29T09:11:24.677Z,55.59
2023-03-29T09:14:13.331Z,55.61
2023-03-29T09:16:52.106Z,53.54
2023-03-29T09:19:31.559Z,52.99
2023-03-29T09:22:09.600Z,52.14
2023-03-29T09:24:56.490Z,52.79
2023-03-29T09:27:50.425Z,52.72
2023-03-29T09:30:34.864Z,51.71
2023-03-29T09:33:12.748Z,51.15
2023-03-29T09:36:09.236Z,51.84
2023-03-29T09:38:41.495Z,51.26
2023-03-29T09:41:28.007Z,50.48
2023-03-29T09:44:00.373Z,49.42
2023-03-29T09:46:42.696Z,49.63
2023-03-29T09:49:17.765Z,47.98
2023-03-29T09:51:49.164Z,47.96
2023-03-29T09:54:17.377Z,47.31
2023-03-29T09:57:23.385Z,47.72
2023-03-29T09:59:52.652Z,48.31
2023-03-29T10:02:21.861Z,46.62
2023-03-29T10:05:03.936Z,47.11
2023-03-29T10:07:44.663Z,47.34
2023-03-29T10:10:34.638Z,46.77
2023-03-29T10:13:11.346Z,46.82
2023-03-29T10:15:39.514Z,46.50
2023-03-29T10:18:11.912Z,47.03
2023-03-29T10:20:40.767Z,47.23
2023-03-29T10:23:17.375Z,46.70
2023-03-29T10:25:45.784Z,46.85
2023-03-29T10:28:17.724Z,45.97
2023-03-29T10:30:52.789Z,45.67
2023-03-29T10:33:24.317Z,46.10
2023-03-29T10:35:52.646Z,44.47
2023-03-29T10:38:24.170Z,44.65
2023-03-29T10:40:53.894Z,45.86
2023-03-29T10:43:29.808Z,43.59
2023-03-29T10:47:14.059Z,43.29
2023-03-29T10:49:44.945Z,44.33
2023-03-29T10:52:17.287Z,46.00
2023-03-29T10:54:46.520Z,45.77
2023-03-29T10:57:56.324Z,44.54
2023-03-29T11:00:59.970Z,41.58
2023-03-29T11:03:41.559Z,40.85
2023-03-29T11:06:16.628Z,40.81
2023-03-29T11:08:57.841Z,41.59
2023-03-29T11:11:45.450Z,40.25
2023-03-29T11:14:31.685Z,40.27
2023-03-29T11:17:22.788Z,40.38
2023-03-29T11:19:56.625Z,40.02
2023-03-29T11:22:50.501Z,39.92
2023-03-29T11:25:38.580Z,41.31
2023-03-29T11:28:20.280Z,40.32
2023-03-29T11:31:06.983Z,38.70
2023-03-29T11:33:55.120Z,38.86
2023-03-29T11:36:39.072Z,38.37
2023-03-29T11:39:16.076Z,37.66
2023-03-29T11:41:49.006Z,38.16
2023-03-29T11:44:22.687Z,37.20
2023-03-29T11:47:00.546Z,37.79
2023-03-29T11:49:34.329Z,37.97
2023-03-29T11:52:20.581Z,38.64
2023-03-29T11:54:53.673Z,37.09
2023-03-29T11:57:29.108Z,35.69
2023-03-29T12:00:07.108Z,36.18
2023-03-29T12:02:46.362Z,37.36
2023-03-29T12:05:23.092Z,37.79
2023-03-29T12:07:57.098Z,37.00
2023-03-29T12:10:31.359Z,36.50
2023-03-29T12:13:06.568Z,35.47
2023-03-29T12:15:42.832Z,34.55
2023-03-29T12:18:41.032Z,34.83
2023-03-29T12:21:14.214Z,35.68
2023-03-29T12:23:44.778Z,35.95
2023-03-29T12:26:50.294Z,34.52
2023-03-29T12:29:46.707Z,34.98
2023-03-29T12:32:31.681Z,35.99
2023-03-29T12:35:22.263Z,35.41
2023-03-29T12:38:21.657Z,35.04
2023-03-29T12:41:23.145Z,34.38
2023-03-29T12:44:24.028Z,34.24
2023-03-29T12:47:00.476Z,35.26
2023-03-29T12:49:33.451Z,35.04
2023-03-29T12:52:05.649Z,35.99
2023-03-29T12:54:33.921Z,36.16
2023-03-29T12:57:20.010Z,34.69
2023-03-29T12:59:49.498Z,35.04
2023-03-29T13:02:18.186Z,35.69
2023-03-29T13:04:58.050Z,36.01
2023-03-29T13:07:30.600Z,36.73
2023-03-29T13:10:28.252Z,36.64
2023-03-29T13:12:56.252Z,35.86
2023-03-29T13:15:27.384Z,36.06
2023-03-29T13:18:32.326Z,35.45
2023-03-29T13:21:31.027Z,35.30
2023-03-29T13:24:16.971Z,35.31
2023-03-29T13:26:51.824Z,34.88
2023-03-29T13:29:43.327Z,33.85
2023-03-29T13:32:36.192Z,34.03
2023-03-29T13:35:11.705Z,34.54
2023-03-29T13:38:01.390Z,34.45
2023-03-29T13:40:43.513Z,34.72
2023-03-29T13:43:18.656Z,35.13
2023-03-29T13:45:58.732Z,35.47
2023-03-29T13:48:35.826Z,35.26
2023-03-29T13:51:20.247Z,35.36
2023-03-29T13:53:54.922Z,35.45
2023-03-29T13:56:27.226Z,35.47
2023-03-29T13:59:05.727Z,35.34
2023-03-29T14:01:46.017Z,36.08
2023-03-29T14:04:30.629Z,35.69
2023-03-29T14:07:01.211Z,35.84
2023-03-29T14:09:32.093Z,36.27
2023-03-29T14:12:01.227Z,35.98
2023-03-29T14:14:32.260Z,36.23
2023-03-29T14:17:00.981Z,36.59
2023-03-29T14:19:34.253Z,36.90
2023-03-29T14:22:07.732Z,36.30
2023-03-29T14:25:29.390Z,35.97
2023-03-29T14:27:57.568Z,37.01
2023-03-29T14:30:28.800Z,37.01
2023-03-29T14:32:56.947Z,36.31
2023-03-29T14:35:33.441Z,36.69
2023-03-29T14:38:02.483Z,37.01
2023-03-29T14:40:30.918Z,36.94
2023-03-29T14:43:06.749Z,36.78
2023-03-29T14:45:35.457Z,37.26
2023-03-29T14:48:04.625Z,36.82
2023-03-29T14:50:32.917Z,36.66
2023-03-29T14:53:01.820Z,36.14
2023-03-29T14:55:31.075Z,35.68
2023-03-29T14:58:00.338Z,35.83
2023-03-29T15:00:30.247Z,36.31
2023-03-29T15:03:03.123Z,35.78
2023-03-29T15:05:44.002Z,36.53
2023-03-29T15:08:27.622Z,36.88
2023-03-29T15:10:55.694Z,35.02
2023-03-29T15:13:25.393Z,34.87
2023-03-29T15:15:59.138Z,35.81
2023-03-29T15:18:39.932Z,35.48
2023-03-29T15:21:10.244Z,35.74
2023-03-29T15:23:42.179Z,35.47
2023-03-29T15:26:23.375Z,35.22
2023-03-29T15:28:57.642Z,34.86
2023-03-29T15:31:32.481Z,34.84
2023-03-29T15:34:06.303Z,35.15
2023-03-29T15:36:42.356Z,34.82
2023-03-29T15:39:15.566Z,34.14
2023-03-29T15:41:45.340Z,33.73
2023-03-29T15:44:17.399Z,32.49
2023-03-29T15:46:45.467Z,32.89
2023-03-29T15:49:14.351Z,33.26
2023-03-29T15:51:42.322Z,32.92
2023-03-29T15:54:10.594Z,33.39
2023-03-29T15:57:22.872Z,33.08
2023-03-29T16:01:07.899Z,33.20
2023-03-29T16:04:24.657Z,33.72
2023-03-29T16:06:55.693Z,33.15
2023-03-29T16:09:23.774Z,33.62
2023-03-29T16:11:56.591Z,33.54
2023-03-29T16:14:43.133Z,33.58
2023-03-29T16:18:04.871Z,33.63
2023-03-29T16:20:32.958Z,34.33
2023-03-29T16:23:01.187Z,34.57
2023-03-29T16:25:29.102Z,34.51
2023-03-29T16:27:57.089Z,34.76
2023-03-29T16:30:25.338Z,34.98
2023-03-29T16:32:53.343Z,35.00
2023-03-29T16:35:31.294Z,35.36
2023-03-29T16:37:59.398Z,35.74
2023-03-29T16:40:28.022Z,35.61
2023-03-29T16:42:56.074Z,35.75
2023-03-29T16:45:24.032Z,35.79
2023-03-29T16:47:51.981Z,36.09
2023-03-29T16:50:21.901Z,36.46
2023-03-29T16:52:51.636Z,37.11
2023-03-29T16:55:22.268Z,36.84
2023-03-29T16:57:51.030Z,37.17
2023-03-29T17:00:20.350Z,37.29
2023-03-29T17:02:51.354Z,37.51
2023-03-29T17:05:19.696Z,37.80
2023-03-29T17:07:47.848Z,37.64
2023-03-29T17:10:16.180Z,37.95
2023-03-29T17:12:45.596Z,38.14
2023-03-29T17:15:13.792Z,38.29
2023-03-29T17:17:42.042Z,38.52
2023-03-29T17:20:12.389Z,38.71
2023-03-29T17:22:41.525Z,39.01
2023-03-29T17:25:10.176Z,39.10
2023-03-29T17:27:38.268Z,39.20
2023-03-29T17:30:07.240Z,39.28
2023-03-29T17:32:35.883Z,39.46
2023-03-29T17:35:04.812Z,39.63
2023-03-29T17:37:32.856Z,39.77
2023-03-29T17:40:01.021Z,40.18
2023-03-29T17:42:28.990Z,40.35
2023-03-29T17:44:57.008Z,40.54
2023-03-29T17:47:25.309Z,40.56
2023-03-29T17:49:53.427Z,40.60
2023-03-29T17:52:21.617Z,40.82
2023-03-29T17:54:49.655Z,40.64
2023-03-29T17:57:17.789Z,41.19
2023-03-29T17:59:46.243Z,41.19
2023-03-29T18:02:19.365Z,41.58
2023-03-29T18:04:47.683Z,41.56
2023-03-29T18:07:16.013Z,41.69
2023-03-29T18:09:44.132Z,41.93
2023-03-29T18:12:12.545Z,42.61
2023-03-29T18:14:40.787Z,42.63
2023-03-29T18:17:09.103Z,44.80
2023-03-29T18:19:37.288Z,44.20
2023-03-29T18:22:05.440Z,45.35
2023-03-29T18:24:33.345Z,46.54
2023-03-29T18:27:01.461Z,48.09
2023-03-29T18:29:29.638Z,48.60
2023-03-29T18:32:02.836Z,49.13
2023-03-29T18:34:31.348Z,48.91
2023-03-29T18:36:59.313Z,48.54
2023-03-29T18:39:27.520Z,47.71
2023-03-29T18:41:55.432Z,47.64
2023-03-29T18:44:27.323Z,48.76
2023-03-29T18:46:56.379Z,48.14
2023-03-29T18:49:25.820Z,49.33
2023-03-29T18:51:57.335Z,50.56
2023-03-29T18:54:35.178Z,49.49
2023-03-29T18:57:06.868Z,49.22
2023-03-29T18:59:36.609Z,49.10
2023-03-29T19:02:04.739Z,49.31
2023-03-29T19:04:32.837Z,49.31
2023-03-29T19:07:01.496Z,49.81
2023-03-29T19:09:30.218Z,49.82
2023-03-29T19:11:58.672Z,51.07
2023-03-29T19:14:26.842Z,52.72
2023-03-29T19:16:54.912Z,53.61
2023-03-29T19:19:23.852Z,53.67
2023-03-29T19:21:53.403Z,52.74
2023-03-29T19:24:22.084Z,53.47
2023-03-29T19:26:52.060Z,54.15
2023-03-29T19:29:20.674Z,56.02
2023-03-29T19:31:48.873Z,55.88
2023-03-29T19:34:19.736Z,56.72
2023-03-29T19:36:47.667Z,56.15
2023-03-29T19:39:15.619Z,56.41
2023-03-29T19:41:43.611Z,56.75
2023-03-29T19:44:11.532Z,58.27
2023-03-29T19:46:40.684Z,56.92
2023-03-29T19:49:09.767Z,57.53
2023-03-29T19:51:37.776Z,57.82
2023-03-29T19:54:07.043Z,57.73
2023-03-29T19:56:34.996Z,57.00
2023-03-29T19:59:02.951Z,57.47
2023-03-29T20:01:32.417Z,57.77
2023-03-29T20:06:29.629Z,60.67
2023-03-29T20:08:58.679Z,60.28
2023-03-29T20:11:26.659Z,60.44
2023-03-29T20:13:54.580Z,62.04
2023-03-29T20:16:25.786Z,61.88
2023-03-29T20:18:54.120Z,61.29
2023-03-29T20:21:22.064Z,60.23
2023-03-29T20:23:52.536Z,59.85
2023-03-29T20:26:20.518Z,59.58
2023-03-29T20:28:48.609Z,60.68
2023-03-29T20:31:16.839Z,61.66
2023-03-29T20:33:44.858Z,62.87
2023-03-29T20:36:13.350Z,62.89
2023-03-29T20:38:41.328Z,63.11
2023-03-29T20:41:09.513Z,62.36
2023-03-29T20:43:37.769Z,61.99
2023-03-29T20:46:14.708Z,62.01
2023-03-29T20:48:46.162Z,62.53
2023-03-29T20:51:14.304Z,62.10
2023-03-29T20:53:42.985Z,62.24
2023-03-29T20:56:10.926Z,63.27
2023-03-29T20:58:42.074Z,64.85
2023-03-29T21:01:14.335Z,64.84
2023-03-29T21:03:42.399Z,63.43
2023-03-29T21:06:14.071Z,63.59
2023-03-29T21:08:45.466Z,62.93
2023-03-29T21:11:14.027Z,62.63
2023-03-29T21:13:43.623Z,62.67
2023-03-29T21:16:13.007Z,62.44
2023-03-29T21:18:41.690Z,61.97
2023-03-29T21:21:11.382Z,63.18
2023-03-29T21:23:41.746Z,65.32
2023-03-29T21:26:09.675Z,66.59
2023-03-29T21:28:41.351Z,66.41
2023-03-29T21:31:09.648Z,65.95
2023-03-29T21:33:37.633Z,65.14
2023-03-29T21:36:05.823Z,64.66
2023-03-29T21:38:46.815Z,64.53
2023-03-29T21:41:14.756Z,63.98
2023-03-29T21:43:49.668Z,63.75
2023-03-29T21:46:17.638Z,63.94
2023-03-29T21:48:45.568Z,63.93
2023-03-29T21:51:13.555Z,63.92
2023-03-29T21:53:44.015Z,64.33
2023-03-29T21:56:12.302Z,64.18
2023-03-29T21:58:47.160Z,65.49
2023-03-29T22:01:19.357Z,65.42
2023-03-29T22:03:49.155Z,66.40
2023-03-29T22:06:17.488Z,66.80
2023-03-29T22:08:46.857Z,65.81
2023-03-29T22:11:17.731Z,65.48
2023-03-29T22:13:48.689Z,65.52
2023-03-29T22:16:19.587Z,65.25
2023-03-29T22:18:54.321Z,65.60
2023-03-29T22:21:24.719Z,65.33
2023-03-29T22:24:01.723Z,65.32
2023-03-29T22:26:32.992Z,65.74
2023-03-29T22:29:01.577Z,65.59
2023-03-29T22:31:30.208Z,65.46
2023-03-29T22:33:58.707Z,65.29
2023-03-29T22:36:29.750Z,65.30
2023-03-29T22:38:58.280Z,65.33
2023-03-29T22:41:27.737Z,65.24
2023-03-29T22:43:58.825Z,65.36
2023-03-29T22:46:27.348Z,65.47
2023-03-29T22:48:55.754Z,65.62
2023-03-29T22:51:23.689Z,65.71
2023-03-29T22:53:51.603Z,65.67
2023-03-29T22:56:19.780Z,65.99
2023-03-29T22:58:47.699Z,66.43
2023-03-29T23:01:15.884Z,66.56
2023-03-29T23:03:43.919Z,66.79
2023-03-29T23:06:11.825Z,66.52
2023-03-29T23:08:39.812Z,66.59
2023-03-29T23:11:07.774Z,66.58
2023-03-29T23:13:35.826Z,66.35
2023-03-29T23:16:04.951Z,66.44
2023-03-29T23:18:35.004Z,66.18
2023-03-29T23:21:05.964Z,66.24
2023-03-29T23:23:35.208Z,66.10
2023-03-29T23:26:03.232Z,66.05
2023-03-29T23:28:34.712Z,66.05
2023-03-29T23:31:11.600Z,66.01
2023-03-29T23:33:42.763Z,65.83
2023-03-29T23:36:17.226Z,65.98
2023-03-29T23:38:46.831Z,65.67
2023-03-29T23:41:15.215Z,65.51
2023-03-29T23:43:44.092Z,65.75
2023-03-29T23:46:16.977Z,65.50
2023-03-29T23:48:46.216Z,65.53
2023-03-29T23:51:14.183Z,65.41
2023-03-29T23:53:42.084Z,65.81
2023-03-29T23:56:10.165Z,65.68
2023-03-29T23:58:38.281Z,65.78
